Time;durP1;ratioP1;P1;durP2;ratioP2;P2;SDS_P1;SDS_P2;PMS_P1;PMS_P2;Temp;Humidity;BMP_temperature;BMP_pressure;BME280_temperature;BME280_humidity;BME280_pressure;Samples;Min_cycle;Max_cycle;Signal;HPM_P1;HPM_P2
2021/01/14 09:27:58;;;;;;;5.73;1.80;;;;;;;3.08;69.41;99153.72;5106995;28;20525;-80
2021/01/14 09:30:26;;;;;;;5.23;1.80;;;;;;;3.30;67.59;99145.25;5088631;28;39329;-81
2021/01/14 09:32:58;;;;;;;2.97;1.57;;;;;;;3.33;64.94;99150.41;5088486;28;40851;-80
2021/01/14 09:35:25;;;;;;;3.50;1.30;;;;;;;3.62;64.53;99181.81;5084709;28;41874;-81
2021/01/14 09:37:54;;;;;;;4.20;1.57;;;;;;;3.61;65.02;99159.13;5087940;28;41152;-80
2021/01/14 09:40:22;;;;;;;5.17;1.47;;;;;;;3.74;64.00;99178.84;5124263;27;38966;-80
2021/01/14 09:42:50;;;;;;;2.07;1.60;;;;;;;3.90;64.32;99182.72;5084817;28;41440;-81
2021/01/14 09:45:20;;;;;;;4.33;1.70;;;;;;;3.99;63.68;99192.03;5084413;28;41902;-81
2021/01/14 09:47:52;;;;;;;4.37;1.77;;;;;;;4.03;63.25;99192.81;5068395;28;41285;-81
2021/01/14 09:50:25;;;;;;;3.83;1.70;;;;;;;4.03;63.20;99182.34;5118658;27;40561;-81
2021/01/14 09:52:53;;;;;;;4.60;1.50;;;;;;;4.14;62.95;99182.84;5104391;28;41748;-81
2021/01/14 09:55:21;;;;;;;3.90;2.03;;;;;;;3.93;62.33;99150.31;5087695;27;42327;-81
2021/01/14 09:57:57;;;;;;;3.47;1.80;;;;;;;4.12;62.23;99184.66;5105933;28;44100;-74
2021/01/14 10:00:27;;;;;;;15.57;7.77;;;;;;;4.18;62.40;99184.50;5098569;28;39985;-81
2021/01/14 10:03:04;;;;;;;6.30;3.30;;;;;;;4.20;62.47;99174.81;5068430;28;40602;-80
2021/01/14 10:05:32;;;;;;;6.37;2.40;;;;;;;4.26;61.40;99200.81;5083735;28;43516;-81
2021/01/14 10:08:02;;;;;;;4.40;1.90;;;;;;;4.33;61.77;99212.81;5102653;28;42043;-81
2021/01/14 10:10:30;;;;;;;4.03;2.00;;;;;;;4.28;61.46;99207.75;5105993;27;39965;-81
2021/01/14 10:12:58;;;;;;;5.00;2.23;;;;;;;4.30;61.52;99198.06;5104650;28;41499;-81
2021/01/14 10:15:27;;;;;;;3.13;2.03;;;;;;;4.43;61.06;99214.28;5081762;28;43266;-81
2021/01/14 10:17:54;;;;;;;4.23;2.47;;;;;;;4.43;61.11;99213.41;5102348;28;42275;-81
2021/01/14 10:20:21;;;;;;;3.17;2.00;;;;;;;4.38;60.80;99203.06;5087460;28;38982;-81
2021/01/14 10:22:49;;;;;;;4.53;1.90;;;;;;;4.41;60.79;99221.31;5087989;28;41625;-80
2021/01/14 10:25:18;;;;;;;3.80;1.80;;;;;;;4.34;61.44;99211.91;5088133;28;41906;-81
2021/01/14 10:27:58;;;;;;;5.43;1.90;;;;;;;4.22;61.01;99204.44;5080520;28;41131;-81
2021/01/14 10:30:28;;;;;;;5.87;1.80;;;;;;;4.29;60.95;99205.97;5069966;28;41029;-81
2021/01/14 10:33:03;;;;;;;2.33;1.70;;;;;;;4.26;61.46;99201.69;5054368;28;40831;-80
2021/01/14 10:35:33;;;;;;;3.73;1.70;;;;;;;4.47;61.47;99231.59;5053890;28;41812;-81
2021/01/14 10:38:05;;;;;;;2.87;1.97;;;;;;;4.38;61.45;99210.91;5070442;28;41998;-80
2021/01/14 10:40:38;;;;;;;3.13;1.60;;;;;;;4.39;61.26;99215.25;5054291;28;39147;-81
2021/01/14 10:43:06;;;;;;;4.40;1.93;;;;;;;4.45;61.40;99228.16;5069878;28;42690;-81
2021/01/14 10:45:36;;;;;;;4.53;2.03;;;;;;;4.38;61.60;99203.06;5081138;28;43350;-81
2021/01/14 10:48:12;;;;;;;3.83;2.10;;;;;;;4.43;60.67;99224.75;5054330;28;42717;-80
2021/01/14 10:50:48;;;;;;;2.33;1.70;;;;;;;4.51;60.27;99238.47;5053865;28;38761;-81
2021/01/14 10:53:27;;;;;;;3.20;2.30;;;;;;;4.54;60.78;99233.13;5058210;28;41571;-81
2021/01/14 10:56:05;;;;;;;4.33;2.03;;;;;;;4.47;60.88;99223.72;5070199;28;43311;-80
2021/01/14 10:58:32;;;;;;;5.33;2.30;;;;;;;4.45;60.40;99222.91;5071068;28;42235;-81
2021/01/14 11:01:00;;;;;;;5.20;1.80;;;;;;;4.51;60.50;99221.88;5053655;28;40132;-80
2021/01/14 11:03:29;;;;;;;4.73;1.80;;;;;;;4.59;60.72;99225.09;5054700;28;40697;-81
2021/01/14 11:05:58;;;;;;;2.47;1.60;;;;;;;4.72;60.30;99238.66;5036776;28;41800;-81
2021/01/14 11:08:27;;;;;;;6.77;2.00;;;;;;;4.69;60.49;99230.03;5053897;28;41242;-80
2021/01/14 11:11:03;;;;;;;3.97;2.10;;;;;;;4.79;60.34;99238.44;5069700;28;40550;-81
2021/01/14 11:13:39;;;;;;;6.57;2.40;;;;;;;4.73;60.11;99222.03;5079865;28;42448;-81
2021/01/14 11:16:08;;;;;;;3.73;1.97;;;;;;;4.76;59.85;99227.19;5065156;28;41830;-80
2021/01/14 11:18:37;;;;;;;3.63;1.77;;;;;;;4.86;59.70;99220.72;5067024;28;40951;-80
2021/01/14 11:21:05;;;;;;;5.17;2.03;;;;;;;5.03;59.55;99242.00;5090617;28;40047;-80
2021/01/14 11:23:32;;;;;;;4.43;2.10;;;;;;;4.98;59.97;99223.78;5091353;28;41920;-81
2021/01/14 11:26:02;;;;;;;8.10;2.17;;;;;;;5.07;60.08;99233.97;5089589;28;41874;-81
2021/01/14 11:28:30;;;;;;;3.20;1.97;;;;;;;5.08;59.22;99234.81;5091052;28;41083;-81
2021/01/14 11:30:57;;;;;;;5.63;2.37;;;;;;;4.99;59.42;99211.50;5089942;28;39649;-80
2021/01/14 11:33:26;;;;;;;3.53;2.03;;;;;;;5.11;59.53;99231.22;5090066;28;43090;-81
2021/01/14 11:35:53;;;;;;;3.63;2.33;;;;;;;5.12;58.96;99230.31;5079279;28;43247;-81
2021/01/14 11:38:20;;;;;;;3.93;1.73;;;;;;;5.09;59.90;99215.53;5053480;28;41771;-80
2021/01/14 11:40:48;;;;;;;4.43;2.17;;;;;;;5.05;59.45;99199.06;5052376;28;38893;-80
2021/01/14 11:43:15;;;;;;;4.67;2.03;;;;;;;5.07;58.34;99217.34;5069659;28;41500;-81
2021/01/14 11:45:42;;;;;;;11.37;6.27;;;;;;;5.09;59.10;99209.41;5052606;28;43392;-79
2021/01/14 11:48:10;;;;;;;7.00;2.83;;;;;;;4.98;58.52;99207.16;5070543;28;42308;-80
2021/01/14 11:50:38;;;;;;;3.83;2.50;;;;;;;5.02;58.87;99214.91;5069312;28;39155;-81
2021/01/14 11:53:05;;;;;;;4.50;2.50;;;;;;;5.06;59.17;99205.16;5085918;28;41587;-80
2021/01/14 11:55:33;;;;;;;7.27;3.73;;;;;;;5.15;59.56;99214.47;5072609;28;41845;-80
2021/01/14 11:58:01;;;;;;;4.10;2.10;;;;;;;5.14;59.00;99197.88;5089222;28;42535;-81
2021/01/14 12:00:29;;;;;;;3.13;2.37;;;;;;;5.22;58.61;99203.69;5088372;28;39663;-81
2021/01/14 12:02:57;;;;;;;5.30;1.97;;;;;;;5.16;58.52;99184.69;5060297;28;40579;-81
2021/01/14 12:05:24;;;;;;;4.60;2.17;;;;;;;5.13;58.44;99188.28;5086170;28;41426;-80
2021/01/14 12:07:52;;;;;;;3.03;2.20;;;;;;;5.24;58.78;99204.50;5070734;28;42138;-80
2021/01/14 12:10:19;;;;;;;4.30;1.80;;;;;;;5.13;59.02;99169.91;5073897;28;40507;-80
2021/01/14 12:12:46;;;;;;;4.87;2.30;;;;;;;5.25;59.08;99179.97;5072186;28;41595;-81
2021/01/14 12:15:14;;;;;;;6.93;2.30;;;;;;;4.98;58.47;99144.19;5090315;28;42686;-81
2021/01/14 12:17:41;;;;;;;5.50;2.50;;;;;;;5.26;58.47;99194.81;5089737;28;41679;-80
2021/01/14 12:20:09;;;;;;;3.63;1.80;;;;;;;5.30;58.75;99195.56;5072953;28;39001;-80
2021/01/14 12:22:39;;;;;;;3.40;2.27;;;;;;;5.20;59.08;99175.78;5072198;28;41463;-80
2021/01/14 12:28:22;;;;;;;3.57;2.50;;;;;;;5.47;59.11;99200.19;4983888;28;41461;-79
2021/01/14 12:30:49;;;;;;;3.60;2.30;;;;;;;5.51;58.98;99196.56;4953142;28;39846;-81
2021/01/14 12:33:16;;;;;;;4.23;2.10;;;;;;;5.52;58.99;99203.53;4938125;28;40867;-79
2021/01/14 12:35:43;;;;;;;5.43;2.50;;;;;;;5.48;59.20;99202.75;4937439;28;41760;-80
2021/01/14 12:38:11;;;;;;;3.37;2.10;;;;;;;5.46;59.36;99198.47;4969959;28;41992;-79
2021/01/14 12:40:38;;;;;;;2.50;1.80;;;;;;;5.29;58.83;99178.09;4970436;28;39874;-80
2021/01/14 12:43:05;;;;;;;5.20;2.13;;;;;;;5.24;59.02;99178.25;4953376;28;42115;-80
2021/01/14 12:45:33;;;;;;;4.50;2.37;;;;;;;5.31;58.54;99200.75;4937202;28;43032;-79
2021/01/14 12:48:00;;;;;;;3.13;1.77;;;;;;;5.38;58.93;99201.38;4953572;28;42757;-79
2021/01/14 12:50:27;;;;;;;2.37;2.00;;;;;;;5.35;58.80;99204.97;4952771;28;40273;-80
2021/01/14 12:52:54;;;;;;;3.70;2.27;;;;;;;5.27;58.92;99209.66;4953146;28;42014;-78
2021/01/14 12:55:22;;;;;;;5.00;3.47;;;;;;;5.20;58.88;99207.28;4952363;28;42627;-79
2021/01/14 12:57:49;;;;;;;2.93;2.47;;;;;;;5.16;59.01;99208.31;4937387;28;42247;-80
2021/01/14 13:00:17;;;;;;;4.20;2.40;;;;;;;5.11;59.02;99213.72;4953910;28;40546;-79
2021/01/14 13:02:45;;;;;;;3.77;2.50;;;;;;;5.02;59.39;99195.66;4984797;28;42721;-80
2021/01/14 13:05:38;;;;;;;2.37;1.87;;;;;;;5.18;59.45;99203.88;4952816;28;43094;-79
2021/01/14 13:08:06;;;;;;;2.93;2.10;;;;;;;5.13;59.46;99193.53;4937271;28;42715;-80
2021/01/14 13:10:58;;;;;;;2.63;2.20;;;;;;;5.25;59.54;99208.84;4953314;28;38936;-80
2021/01/14 13:13:26;;;;;;;5.27;2.27;;;;;;;5.24;58.30;99230.75;4952799;28;41339;-80
2021/01/14 13:15:53;;;;;;;4.47;2.10;;;;;;;5.23;58.21;99226.41;4952038;28;42692;-79
2021/01/14 13:18:24;;;;;;;4.13;2.30;;;;;;;4.92;58.39;99161.03;4969879;28;42167;-79
2021/01/14 13:20:55;;;;;;;4.90;2.40;;;;;;;4.98;58.46;99150.28;4952386;28;39940;-79
2021/01/14 13:23:34;;;;;;;6.63;2.40;;;;;;;5.24;58.77;99195.78;4969690;28;41706;-79
2021/01/14 13:26:27;;;;;;;5.10;2.20;;;;;;;5.43;58.25;99225.72;4969023;28;43288;-79
2021/01/14 13:28:56;;;;;;;6.33;2.90;;;;;;;5.36;59.24;99204.06;4937311;28;42540;-80
2021/01/14 13:31:24;;;;;;;2.33;1.90;;;;;;;5.52;58.84;99208.78;4952045;28;40159;-79
2021/01/14 13:33:52;;;;;;;3.13;1.70;;;;;;;5.57;58.76;99214.69;4951269;28;41443;-79
2021/01/14 13:36:19;;;;;;;5.20;1.93;;;;;;;5.61;58.57;99219.78;4937379;28;42320;-79
2021/01/14 13:38:46;;;;;;;2.67;2.00;;;;;;;5.60;58.52;99215.44;4937165;28;42169;-79
2021/01/14 13:41:18;;;;;;;3.37;2.17;;;;;;;5.48;58.43;99209.78;4968323;28;40330;-80
2021/01/14 13:48:48;;;;;;;6.77;2.20;;;;;;;4.92;59.23;99144.41;4948582;28;41969;-79
2021/01/14 13:51:18;;;;;;;6.50;2.13;;;;;;;5.20;59.38;99209.91;4884796;29;40995;-79
2021/01/14 13:54:13;;;;;;;3.47;1.70;;;;;;;5.21;59.66;99209.84;4894270;29;38930;-81
2021/01/14 13:57:07;;;;;;;2.43;1.70;;;;;;;5.21;60.10;99201.97;4931629;28;40917;-79
2021/01/14 14:00:00;;;;;;;2.57;1.67;;;;;;;5.19;59.91;99208.22;4956567;28;43188;-79
2021/01/14 14:02:27;;;;;;;2.63;2.00;;;;;;;5.09;59.96;99189.28;4940733;28;41664;-79
2021/01/14 14:04:57;;;;;;;3.67;2.17;;;;;;;5.16;60.14;99206.56;4972340;28;40161;-79
2021/01/14 14:07:26;;;;;;;4.43;2.90;;;;;;;4.93;60.08;99172.38;4954800;28;41743;-80
2021/01/14 14:09:53;;;;;;;4.10;1.97;;;;;;;5.14;60.20;99218.00;4956045;28;43588;-82
2021/01/14 14:12:25;;;;;;;5.83;2.50;;;;;;;4.69;60.11;99143.44;4939771;28;40851;-80
2021/01/14 14:15:03;;;;;;;4.80;2.20;;;;;;;4.94;60.05;99195.09;4940032;28;39071;-79
2021/01/14 14:17:37;;;;;;;4.27;2.70;;;;;;;5.09;60.14;99231.28;4955743;28;41460;-79
2021/01/14 14:20:06;;;;;;;3.27;2.23;;;;;;;4.77;60.33;99171.19;4940249;28;42192;-80
2021/01/14 14:22:34;;;;;;;4.37;2.47;;;;;;;4.92;60.83;99202.16;4955311;28;41906;-80
2021/01/14 14:25:07;;;;;;;4.20;2.40;;;;;;;4.80;60.72;99181.56;4955684;28;40004;-80
2021/01/14 14:27:35;;;;;;;3.43;2.20;;;;;;;4.76;60.36;99208.81;4955129;28;40877;-80
2021/01/14 14:30:05;;;;;;;3.70;1.90;;;;;;;4.61;60.41;99182.19;4940228;28;41761;-79
2021/01/14 14:32:36;;;;;;;6.90;2.40;;;;;;;4.64;60.73;99210.94;4939328;28;41653;-80
2021/01/14 14:35:06;;;;;;;2.83;2.07;;;;;;;4.66;61.12;99222.25;4939570;28;40033;-79
2021/01/14 14:37:34;;;;;;;7.80;2.53;;;;;;;4.59;61.00;99218.09;4938789;28;41009;-79
2021/01/14 14:40:06;;;;;;;4.93;2.27;;;;;;;4.54;61.36;99227.88;4972258;28;43546;-79
2021/01/14 14:42:33;;;;;;;2.73;2.17;;;;;;;4.44;61.42;99209.88;4971711;28;41284;-79
2021/01/14 14:45:00;;;;;;;3.83;1.73;;;;;;;4.32;61.55;99192.78;4955205;28;39836;-80
2021/01/14 14:47:27;;;;;;;3.50;1.80;;;;;;;4.15;61.70;99176.72;4954521;28;41672;-80
2021/01/14 14:49:54;;;;;;;5.57;2.60;;;;;;;4.38;61.69;99221.41;4955731;28;42038;-80
2021/01/14 14:52:22;;;;;;;3.27;2.00;;;;;;;4.34;61.87;99225.88;4954767;28;42809;-80
2021/01/14 14:54:50;;;;;;;2.73;1.90;;;;;;;4.32;61.92;99222.47;4939266;28;39463;-80
2021/01/14 14:57:17;;;;;;;26.33;16.87;;;;;;;4.24;61.71;99219.22;4955427;28;42335;-80
2021/01/14 15:02:50;;;;;;;12.53;8.70;;;;;;;3.74;62.39;99143.91;4970539;28;42256;-79
2021/01/14 15:05:18;;;;;;;11.33;5.97;;;;;;;3.84;62.46;99167.16;4946907;28;39994;-80
2021/01/14 15:07:45;;;;;;;6.70;4.47;;;;;;;4.17;62.49;99216.84;4939082;28;40581;-80
2021/01/14 15:10:14;;;;;;;7.67;3.60;;;;;;;4.02;62.76;99201.59;4971109;28;42352;-80
2021/01/14 15:12:44;;;;;;;4.97;3.20;;;;;;;3.83;63.01;99186.41;4938120;28;41271;-80
2021/01/14 15:15:18;;;;;;;6.40;3.70;;;;;;;3.79;62.83;99183.94;4986889;28;40104;-79
2021/01/14 15:17:45;;;;;;;4.00;3.43;;;;;;;3.93;63.11;99211.44;4987610;28;41635;-80
2021/01/14 15:20:12;;;;;;;6.40;3.70;;;;;;;3.87;62.98;99216.84;4986243;28;42816;-79
2021/01/14 15:22:40;;;;;;;3.90;3.20;;;;;;;3.54;63.23;99157.63;4954287;28;42450;-80
2021/01/14 15:25:08;;;;;;;5.10;3.10;;;;;;;3.90;63.42;99227.25;4938138;28;39050;-79
2021/01/14 15:27:36;;;;;;;7.40;4.10;;;;;;;3.86;63.46;99220.38;4954706;28;42437;-79
2021/01/14 15:30:04;;;;;;;5.13;3.27;;;;;;;3.83;63.62;99238.81;4954358;28;42541;-80
2021/01/14 15:32:31;;;;;;;4.60;4.07;;;;;;;3.80;63.50;99238.91;4969317;28;43028;-80
2021/01/14 15:34:59;;;;;;;6.70;4.53;;;;;;;3.61;63.97;99216.75;4971089;28;40006;-80
2021/01/14 15:37:26;;;;;;;7.03;4.00;;;;;;;3.66;64.00;99230.59;4953744;28;42040;-79
2021/01/14 15:39:54;;;;;;;7.50;4.97;;;;;;;3.71;64.10;99252.25;4970492;28;41754;-79
2021/01/14 15:42:47;;;;;;;6.63;3.43;;;;;;;3.72;64.13;99248.72;4954274;28;41095;-80
